sensor_id;sensor_type;location;lat;lon;timestamp;temperature;humidity
70366;DHT22;57787;48.216;12.396;2024-02-21T00:00:40;3.50;83.60
70366;DHT22;57787;48.216;12.396;2024-02-21T00:03:08;3.60;83.40
70366;DHT22;57787;48.216;12.396;2024-02-21T00:05:35;3.70;83.50
70366;DHT22;57787;48.216;12.396;2024-02-21T00:08:02;3.70;83.40
70366;DHT22;57787;48.216;12.396;2024-02-21T00:10:30;3.80;83.30
70366;DHT22;57787;48.216;12.396;2024-02-21T00:12:59;3.80;82.90
70366;DHT22;57787;48.216;12.396;2024-02-21T00:15:28;3.90;82.60
70366;DHT22;57787;48.216;12.396;2024-02-21T00:17:55;3.90;82.70
70366;DHT22;57787;48.216;12.396;2024-02-21T00:20:24;4.00;82.60
70366;DHT22;57787;48.216;12.396;2024-02-21T00:22:52;4.00;82.50
70366;DHT22;57787;48.216;12.396;2024-02-21T00:25:19;4.00;82.30
70366;DHT22;57787;48.216;12.396;2024-02-21T00:27:46;4.00;82.50
70366;DHT22;57787;48.216;12.396;2024-02-21T00:30:13;4.00;82.20
70366;DHT22;57787;48.216;12.396;2024-02-21T00:32:40;4.00;82.50
70366;DHT22;57787;48.216;12.396;2024-02-21T00:35:07;4.10;82.40
70366;DHT22;57787;48.216;12.396;2024-02-21T00:37:33;4.10;82.50
70366;DHT22;57787;48.216;12.396;2024-02-21T00:40:01;4.10;82.50
70366;DHT22;57787;48.216;12.396;2024-02-21T00:42:28;4.10;82.70
70366;DHT22;57787;48.216;12.396;2024-02-21T00:44:55;4.10;82.30
70366;DHT22;57787;48.216;12.396;2024-02-21T00:47:22;4.20;82.20
70366;DHT22;57787;48.216;12.396;2024-02-21T00:49:48;4.20;82.20
70366;DHT22;57787;48.216;12.396;2024-02-21T00:52:15;4.20;81.90
70366;DHT22;57787;48.216;12.396;2024-02-21T00:54:42;4.20;81.60
70366;DHT22;57787;48.216;12.396;2024-02-21T00:57:19;4.30;81.60
70366;DHT22;57787;48.216;12.396;2024-02-21T00:59:46;4.30;81.50
70366;DHT22;57787;48.216;12.396;2024-02-21T01:02:30;4.30;81.40
70366;DHT22;57787;48.216;12.396;2024-02-21T01:04:58;4.30;81.10
70366;DHT22;57787;48.216;12.396;2024-02-21T01:07:25;4.30;81.20
70366;DHT22;57787;48.216;12.396;2024-02-21T01:09:52;4.30;80.90
70366;DHT22;57787;48.216;12.396;2024-02-21T01:12:19;4.30;80.90
70366;DHT22;57787;48.216;12.396;2024-02-21T01:14:47;4.30;81.00
70366;DHT22;57787;48.216;12.396;2024-02-21T01:17:13;4.30;80.80
70366;DHT22;57787;48.216;12.396;2024-02-21T01:19:42;4.40;80.70
70366;DHT22;57787;48.216;12.396;2024-02-21T01:22:09;4.30;80.90
70366;DHT22;57787;48.216;12.396;2024-02-21T01:24:36;4.40;80.70
70366;DHT22;57787;48.216;12.396;2024-02-21T01:27:03;4.40;80.40
70366;DHT22;57787;48.216;12.396;2024-02-21T01:29:30;4.30;80.60
70366;DHT22;57787;48.216;12.396;2024-02-21T01:31:57;4.40;80.30
70366;DHT22;57787;48.216;12.396;2024-02-21T01:34:24;4.40;80.40
70366;DHT22;57787;48.216;12.396;2024-02-21T01:36:52;4.40;80.30
70366;DHT22;57787;48.216;12.396;2024-02-21T01:39:19;4.40;80.30
70366;DHT22;57787;48.216;12.396;2024-02-21T01:41:46;4.40;80.40
70366;DHT22;57787;48.216;12.396;2024-02-21T01:44:13;4.40;80.10
70366;DHT22;57787;48.216;12.396;2024-02-21T01:46:40;4.40;80.60
70366;DHT22;57787;48.216;12.396;2024-02-21T01:49:07;4.40;80.70
70366;DHT22;57787;48.216;12.396;2024-02-21T01:51:36;4.40;80.60
70366;DHT22;57787;48.216;12.396;2024-02-21T01:54:03;4.40;80.70
70366;DHT22;57787;48.216;12.396;2024-02-21T01:56:30;4.40;80.70
70366;DHT22;57787;48.216;12.396;2024-02-21T01:58:57;4.40;81.00
70366;DHT22;57787;48.216;12.396;2024-02-21T02:01:24;4.40;80.60
70366;DHT22;57787;48.216;12.396;2024-02-21T02:03:51;4.40;80.60
70366;DHT22;57787;48.216;12.396;2024-02-21T02:06:20;4.50;80.80
70366;DHT22;57787;48.216;12.396;2024-02-21T02:08:47;4.50;80.70
70366;DHT22;57787;48.216;12.396;2024-02-21T02:11:14;4.50;80.60
70366;DHT22;57787;48.216;12.396;2024-02-21T02:13:42;4.50;80.60
70366;DHT22;57787;48.216;12.396;2024-02-21T02:16:09;4.50;80.50
70366;DHT22;57787;48.216;12.396;2024-02-21T02:18:36;4.50;80.50
70366;DHT22;57787;48.216;12.396;2024-02-21T02:21:08;4.50;80.20
70366;DHT22;57787;48.216;12.396;2024-02-21T02:23:37;4.50;80.30
70366;DHT22;57787;48.216;12.396;2024-02-21T02:26:04;4.50;80.20
70366;DHT22;57787;48.216;12.396;2024-02-21T02:28:34;4.50;80.30
70366;DHT22;57787;48.216;12.396;2024-02-21T02:31:00;4.50;80.20
70366;DHT22;57787;48.216;12.396;2024-02-21T02:33:28;4.50;80.20
70366;DHT22;57787;48.216;12.396;2024-02-21T02:35:55;4.40;79.80
70366;DHT22;57787;48.216;12.396;2024-02-21T02:38:24;4.50;79.70
70366;DHT22;57787;48.216;12.396;2024-02-21T02:40:50;4.40;79.90
70366;DHT22;57787;48.216;12.396;2024-02-21T02:43:17;4.40;79.90
70366;DHT22;57787;48.216;12.396;2024-02-21T02:45:44;4.40;79.60
70366;DHT22;57787;48.216;12.396;2024-02-21T02:48:11;4.40;79.90
70366;DHT22;57787;48.216;12.396;2024-02-21T02:50:38;4.40;80.10
70366;DHT22;57787;48.216;12.396;2024-02-21T02:53:04;4.40;80.00
70366;DHT22;57787;48.216;12.396;2024-02-21T02:55:31;4.40;79.90
70366;DHT22;57787;48.216;12.396;2024-02-21T02:57:58;4.30;80.10
70366;DHT22;57787;48.216;12.396;2024-02-21T03:00:26;4.30;79.90
70366;DHT22;57787;48.216;12.396;2024-02-21T03:02:54;4.30;80.00
70366;DHT22;57787;48.216;12.396;2024-02-21T03:05:21;4.30;80.10
70366;DHT22;57787;48.216;12.396;2024-02-21T03:07:49;4.30;80.20
70366;DHT22;57787;48.216;12.396;2024-02-21T03:10:16;4.20;80.10
70366;DHT22;57787;48.216;12.396;2024-02-21T03:12:46;4.30;79.90
70366;DHT22;57787;48.216;12.396;2024-02-21T03:15:13;4.30;80.00
70366;DHT22;57787;48.216;12.396;2024-02-21T03:17:40;4.30;80.20
70366;DHT22;57787;48.216;12.396;2024-02-21T03:20:08;4.30;80.10
70366;DHT22;57787;48.216;12.396;2024-02-21T03:22:39;4.30;80.40
70366;DHT22;57787;48.216;12.396;2024-02-21T03:25:07;4.30;80.20
70366;DHT22;57787;48.216;12.396;2024-02-21T03:27:34;4.30;79.90
70366;DHT22;57787;48.216;12.396;2024-02-21T03:30:02;4.40;79.90
70366;DHT22;57787;48.216;12.396;2024-02-21T03:32:31;4.30;80.00
70366;DHT22;57787;48.216;12.396;2024-02-21T03:34:58;4.30;79.60
70366;DHT22;57787;48.216;12.396;2024-02-21T03:37:25;4.40;79.20
70366;DHT22;57787;48.216;12.396;2024-02-21T03:39:52;4.40;79.00
70366;DHT22;57787;48.216;12.396;2024-02-21T03:42:19;4.40;79.10
70366;DHT22;57787;48.216;12.396;2024-02-21T03:44:48;4.40;78.80
70366;DHT22;57787;48.216;12.396;2024-02-21T03:47:15;4.40;79.20
70366;DHT22;57787;48.216;12.396;2024-02-21T03:49:42;4.40;79.00
70366;DHT22;57787;48.216;12.396;2024-02-21T03:52:09;4.40;79.10
70366;DHT22;57787;48.216;12.396;2024-02-21T03:54:36;4.40;79.10
70366;DHT22;57787;48.216;12.396;2024-02-21T03:57:02;4.40;79.20
70366;DHT22;57787;48.216;12.396;2024-02-21T03:59:31;4.40;78.90
70366;DHT22;57787;48.216;12.396;2024-02-21T04:01:58;4.40;78.80
70366;DHT22;57787;48.216;12.396;2024-02-21T04:04:25;4.40;79.10
70366;DHT22;57787;48.216;12.396;2024-02-21T04:06:52;4.40;79.00
70366;DHT22;57787;48.216;12.396;2024-02-21T04:09:19;4.40;79.00
70366;DHT22;57787;48.216;12.396;2024-02-21T04:11:46;4.40;79.20
70366;DHT22;57787;48.216;12.396;2024-02-21T04:14:13;4.40;79.00
70366;DHT22;57787;48.216;12.396;2024-02-21T04:16:43;4.50;79.20
70366;DHT22;57787;48.216;12.396;2024-02-21T04:19:12;4.40;79.10
70366;DHT22;57787;48.216;12.396;2024-02-21T04:21:39;4.50;78.90
70366;DHT22;57787;48.216;12.396;2024-02-21T04:24:06;4.50;78.90
70366;DHT22;57787;48.216;12.396;2024-02-21T04:26:33;4.50;78.80
70366;DHT22;57787;48.216;12.396;2024-02-21T04:29:00;4.50;78.90
70366;DHT22;57787;48.216;12.396;2024-02-21T04:31:28;4.50;78.70
70366;DHT22;57787;48.216;12.396;2024-02-21T04:33:56;4.50;78.70
70366;DHT22;57787;48.216;12.396;2024-02-21T04:36:23;4.50;78.60
70366;DHT22;57787;48.216;12.396;2024-02-21T04:38:51;4.50;78.30
70366;DHT22;57787;48.216;12.396;2024-02-21T04:41:18;4.50;78.50
70366;DHT22;57787;48.216;12.396;2024-02-21T04:43:48;4.50;78.40
70366;DHT22;57787;48.216;12.396;2024-02-21T04:46:16;4.50;78.50
70366;DHT22;57787;48.216;12.396;2024-02-21T04:48:43;4.60;78.70
70366;DHT22;57787;48.216;12.396;2024-02-21T04:51:11;4.50;78.50
70366;DHT22;57787;48.216;12.396;2024-02-21T04:53:38;4.50;78.50
70366;DHT22;57787;48.216;12.396;2024-02-21T04:56:05;4.50;78.70
70366;DHT22;57787;48.216;12.396;2024-02-21T04:58:32;4.50;79.00
70366;DHT22;57787;48.216;12.396;2024-02-21T05:00:58;4.40;78.80
70366;DHT22;57787;48.216;12.396;2024-02-21T05:03:25;4.40;79.00
70366;DHT22;57787;48.216;12.396;2024-02-21T05:05:52;4.50;79.20
70366;DHT22;57787;48.216;12.396;2024-02-21T05:08:20;4.40;79.20
70366;DHT22;57787;48.216;12.396;2024-02-21T05:10:47;4.50;79.20
70366;DHT22;57787;48.216;12.396;2024-02-21T05:13:14;4.50;79.30
70366;DHT22;57787;48.216;12.396;2024-02-21T05:15:42;4.50;79.30
70366;DHT22;57787;48.216;12.396;2024-02-21T05:18:09;4.50;79.20
70366;DHT22;57787;48.216;12.396;2024-02-21T05:20:35;4.50;78.80
70366;DHT22;57787;48.216;12.396;2024-02-21T05:23:03;4.50;78.90
70366;DHT22;57787;48.216;12.396;2024-02-21T05:25:30;4.50;78.80
70366;DHT22;57787;48.216;12.396;2024-02-21T05:27:57;4.50;78.70
70366;DHT22;57787;48.216;12.396;2024-02-21T05:30:28;4.50;78.90
70366;DHT22;57787;48.216;12.396;2024-02-21T05:32:55;4.50;78.80
70366;DHT22;57787;48.216;12.396;2024-02-21T05:35:28;4.50;78.80
70366;DHT22;57787;48.216;12.396;2024-02-21T05:37:56;4.40;78.70
70366;DHT22;57787;48.216;12.396;2024-02-21T05:40:23;4.50;79.30
70366;DHT22;57787;48.216;12.396;2024-02-21T05:42:51;4.40;79.30
70366;DHT22;57787;48.216;12.396;2024-02-21T05:45:18;4.40;79.60
70366;DHT22;57787;48.216;12.396;2024-02-21T05:47:45;4.40;79.70
70366;DHT22;57787;48.216;12.396;2024-02-21T05:50:15;4.40;79.60
70366;DHT22;57787;48.216;12.396;2024-02-21T05:52:44;4.40;79.70
70366;DHT22;57787;48.216;12.396;2024-02-21T05:55:11;4.30;79.90
70366;DHT22;57787;48.216;12.396;2024-02-21T05:57:37;4.30;79.60
70366;DHT22;57787;48.216;12.396;2024-02-21T06:00:05;4.30;80.00
70366;DHT22;57787;48.216;12.396;2024-02-21T06:02:32;4.20;79.80
70366;DHT22;57787;48.216;12.396;2024-02-21T06:05:03;4.10;79.90
70366;DHT22;57787;48.216;12.396;2024-02-21T06:07:34;4.00;80.30
70366;DHT22;57787;48.216;12.396;2024-02-21T06:10:02;3.90;80.60
70366;DHT22;57787;48.216;12.396;2024-02-21T06:12:30;3.70;80.80
70366;DHT22;57787;48.216;12.396;2024-02-21T06:14:57;3.60;81.20
70366;DHT22;57787;48.216;12.396;2024-02-21T06:17:24;3.50;81.40
70366;DHT22;57787;48.216;12.396;2024-02-21T06:19:51;3.50;81.70
70366;DHT22;57787;48.216;12.396;2024-02-21T06:22:18;3.50;81.80
70366;DHT22;57787;48.216;12.396;2024-02-21T06:24:45;3.40;82.20
70366;DHT22;57787;48.216;12.396;2024-02-21T06:27:12;3.40;82.30
70366;DHT22;57787;48.216;12.396;2024-02-21T06:29:41;3.40;82.20
70366;DHT22;57787;48.216;12.396;2024-02-21T06:32:10;3.50;82.10
70366;DHT22;57787;48.216;12.396;2024-02-21T06:34:38;3.50;81.90
70366;DHT22;57787;48.216;12.396;2024-02-21T06:37:05;3.60;81.50
70366;DHT22;57787;48.216;12.396;2024-02-21T06:39:31;3.70;81.20
70366;DHT22;57787;48.216;12.396;2024-02-21T06:41:58;3.70;81.20
70366;DHT22;57787;48.216;12.396;2024-02-21T06:44:29;3.80;81.00
70366;DHT22;57787;48.216;12.396;2024-02-21T06:46:59;3.80;80.90
70366;DHT22;57787;48.216;12.396;2024-02-21T06:49:26;3.80;80.80
70366;DHT22;57787;48.216;12.396;2024-02-21T06:51:53;3.90;80.80
70366;DHT22;57787;48.216;12.396;2024-02-21T06:54:22;3.90;80.90
70366;DHT22;57787;48.216;12.396;2024-02-21T06:56:48;4.00;80.80
70366;DHT22;57787;48.216;12.396;2024-02-21T06:59:18;4.00;80.80
70366;DHT22;57787;48.216;12.396;2024-02-21T07:01:45;4.10;80.40
70366;DHT22;57787;48.216;12.396;2024-02-21T07:04:13;4.10;80.50
70366;DHT22;57787;48.216;12.396;2024-02-21T07:06:40;4.20;80.40
70366;DHT22;57787;48.216;12.396;2024-02-21T07:09:07;4.30;80.20
70366;DHT22;57787;48.216;12.396;2024-02-21T07:11:33;4.30;80.10
70366;DHT22;57787;48.216;12.396;2024-02-21T07:14:00;4.40;79.80
70366;DHT22;57787;48.216;12.396;2024-02-21T07:16:27;4.50;79.80
70366;DHT22;57787;48.216;12.396;2024-02-21T07:18:55;4.60;79.50
70366;DHT22;57787;48.216;12.396;2024-02-21T07:21:26;4.70;79.30
70366;DHT22;57787;48.216;12.396;2024-02-21T07:23:53;4.80;79.30
70366;DHT22;57787;48.216;12.396;2024-02-21T07:26:20;5.10;78.70
70366;DHT22;57787;48.216;12.396;2024-02-21T07:28:48;5.40;78.30
70366;DHT22;57787;48.216;12.396;2024-02-21T07:31:14;5.80;77.50
70366;DHT22;57787;48.216;12.396;2024-02-21T07:33:44;6.10;76.00
70366;DHT22;57787;48.216;12.396;2024-02-21T07:36:11;6.40;75.20
70366;DHT22;57787;48.216;12.396;2024-02-21T07:38:39;6.50;73.80
70366;DHT22;57787;48.216;12.396;2024-02-21T07:41:07;6.50;73.70
70366;DHT22;57787;48.216;12.396;2024-02-21T07:43:34;6.60;73.70
70366;DHT22;57787;48.216;12.396;2024-02-21T07:46:01;6.70;73.50
70366;DHT22;57787;48.216;12.396;2024-02-21T07:48:28;6.80;73.00
70366;DHT22;57787;48.216;12.396;2024-02-21T07:51:03;6.90;72.80
70366;DHT22;57787;48.216;12.396;2024-02-21T07:53:30;7.00;72.30
70366;DHT22;57787;48.216;12.396;2024-02-21T07:55:57;6.90;71.80
70366;DHT22;57787;48.216;12.396;2024-02-21T07:58:24;6.90;71.80
70366;DHT22;57787;48.216;12.396;2024-02-21T08:00:54;6.80;71.60
70366;DHT22;57787;48.216;12.396;2024-02-21T08:03:20;6.80;72.10
70366;DHT22;57787;48.216;12.396;2024-02-21T08:05:48;6.70;72.40
70366;DHT22;57787;48.216;12.396;2024-02-21T08:08:15;6.70;72.50
70366;DHT22;57787;48.216;12.396;2024-02-21T08:10:50;6.60;72.30
70366;DHT22;57787;48.216;12.396;2024-02-21T08:13:19;6.60;72.70
70366;DHT22;57787;48.216;12.396;2024-02-21T08:15:47;6.60;72.20
70366;DHT22;57787;48.216;12.396;2024-02-21T08:18:14;6.50;72.60
70366;DHT22;57787;48.216;12.396;2024-02-21T08:20:43;6.60;72.40
70366;DHT22;57787;48.216;12.396;2024-02-21T08:23:11;6.70;72.90
70366;DHT22;57787;48.216;12.396;2024-02-21T08:25:38;6.80;71.60
70366;DHT22;57787;48.216;12.396;2024-02-21T08:28:05;7.00;72.00
70366;DHT22;57787;48.216;12.396;2024-02-21T08:30:33;7.00;70.80
70366;DHT22;57787;48.216;12.396;2024-02-21T08:33:00;7.10;71.80
70366;DHT22;57787;48.216;12.396;2024-02-21T08:35:26;7.20;70.80
70366;DHT22;57787;48.216;12.396;2024-02-21T08:37:53;7.30;70.50
70366;DHT22;57787;48.216;12.396;2024-02-21T08:40:21;7.30;70.20
70366;DHT22;57787;48.216;12.396;2024-02-21T08:42:48;7.50;70.50
70366;DHT22;57787;48.216;12.396;2024-02-21T08:45:18;7.80;70.10
70366;DHT22;57787;48.216;12.396;2024-02-21T08:47:45;8.00;69.40
70366;DHT22;57787;48.216;12.396;2024-02-21T08:50:12;8.10;68.70
70366;DHT22;57787;48.216;12.396;2024-02-21T08:52:53;8.20;67.80
70366;DHT22;57787;48.216;12.396;2024-02-21T08:55:20;8.30;67.80
70366;DHT22;57787;48.216;12.396;2024-02-21T08:57:50;8.30;67.70
70366;DHT22;57787;48.216;12.396;2024-02-21T09:00:18;8.40;68.20
70366;DHT22;57787;48.216;12.396;2024-02-21T09:02:48;8.40;68.00
70366;DHT22;57787;48.216;12.396;2024-02-21T09:05:16;8.40;66.70
70366;DHT22;57787;48.216;12.396;2024-02-21T09:07:46;8.30;66.90
70366;DHT22;57787;48.216;12.396;2024-02-21T09:10:13;8.20;67.80
70366;DHT22;57787;48.216;12.396;2024-02-21T09:12:40;8.00;67.90
70366;DHT22;57787;48.216;12.396;2024-02-21T09:15:07;8.00;68.40
70366;DHT22;57787;48.216;12.396;2024-02-21T09:17:34;7.90;67.10
70366;DHT22;57787;48.216;12.396;2024-02-21T09:20:01;7.80;68.40
70366;DHT22;57787;48.216;12.396;2024-02-21T09:22:31;7.70;69.00
70366;DHT22;57787;48.216;12.396;2024-02-21T09:25:01;7.70;69.60
70366;DHT22;57787;48.216;12.396;2024-02-21T09:27:27;7.60;69.90
70366;DHT22;57787;48.216;12.396;2024-02-21T09:29:54;7.60;69.70
70366;DHT22;57787;48.216;12.396;2024-02-21T09:32:21;7.90;69.60
70366;DHT22;57787;48.216;12.396;2024-02-21T09:34:48;8.30;67.90
70366;DHT22;57787;48.216;12.396;2024-02-21T09:37:15;8.70;67.70
70366;DHT22;57787;48.216;12.396;2024-02-21T09:39:44;9.10;66.20
70366;DHT22;57787;48.216;12.396;2024-02-21T09:42:13;9.40;65.00
70366;DHT22;57787;48.216;12.396;2024-02-21T09:44:41;9.70;64.20
70366;DHT22;57787;48.216;12.396;2024-02-21T09:47:10;9.90;63.30
70366;DHT22;57787;48.216;12.396;2024-02-21T09:49:41;10.20;61.90
70366;DHT22;57787;48.216;12.396;2024-02-21T09:52:10;10.30;59.20
70366;DHT22;57787;48.216;12.396;2024-02-21T09:54:40;10.50;59.50
70366;DHT22;57787;48.216;12.396;2024-02-21T09:57:12;10.60;58.90
70366;DHT22;57787;48.216;12.396;2024-02-21T09:59:39;10.90;59.30
70366;DHT22;57787;48.216;12.396;2024-02-21T10:02:09;11.00;57.90
70366;DHT22;57787;48.216;12.396;2024-02-21T10:04:40;11.00;58.30
70366;DHT22;57787;48.216;12.396;2024-02-21T10:07:09;11.10;55.90
70366;DHT22;57787;48.216;12.396;2024-02-21T10:09:36;11.20;58.00
70366;DHT22;57787;48.216;12.396;2024-02-21T10:12:11;11.40;54.80
70366;DHT22;57787;48.216;12.396;2024-02-21T10:14:41;11.40;56.50
70366;DHT22;57787;48.216;12.396;2024-02-21T10:17:17;11.60;55.60
70366;DHT22;57787;48.216;12.396;2024-02-21T10:19:46;11.70;56.80
70366;DHT22;57787;48.216;12.396;2024-02-21T10:22:14;11.80;55.00
70366;DHT22;57787;48.216;12.396;2024-02-21T10:24:42;12.00;54.30
70366;DHT22;57787;48.216;12.396;2024-02-21T10:27:10;12.00;54.00
70366;DHT22;57787;48.216;12.396;2024-02-21T10:29:40;12.10;54.80
70366;DHT22;57787;48.216;12.396;2024-02-21T10:34:37;12.30;55.10
70366;DHT22;57787;48.216;12.396;2024-02-21T10:37:05;12.30;53.30
70366;DHT22;57787;48.216;12.396;2024-02-21T10:39:32;12.30;53.60
70366;DHT22;57787;48.216;12.396;2024-02-21T10:42:00;12.40;53.50
70366;DHT22;57787;48.216;12.396;2024-02-21T10:44:33;12.60;53.80
70366;DHT22;57787;48.216;12.396;2024-02-21T10:47:00;12.70;52.80
70366;DHT22;57787;48.216;12.396;2024-02-21T10:49:29;12.70;53.90
70366;DHT22;57787;48.216;12.396;2024-02-21T10:52:13;12.60;53.30
70366;DHT22;57787;48.216;12.396;2024-02-21T10:54:48;12.70;52.90
70366;DHT22;57787;48.216;12.396;2024-02-21T10:57:16;12.80;52.50
70366;DHT22;57787;48.216;12.396;2024-02-21T10:59:44;12.80;52.40
70366;DHT22;57787;48.216;12.396;2024-02-21T11:02:15;12.90;49.10
70366;DHT22;57787;48.216;12.396;2024-02-21T11:04:42;12.90;51.00
70366;DHT22;57787;48.216;12.396;2024-02-21T11:07:10;13.00;51.10
70366;DHT22;57787;48.216;12.396;2024-02-21T11:09:38;13.10;52.50
70366;DHT22;57787;48.216;12.396;2024-02-21T11:12:07;13.30;52.30
70366;DHT22;57787;48.216;12.396;2024-02-21T11:14:37;13.50;51.70
70366;DHT22;57787;48.216;12.396;2024-02-21T11:17:16;13.50;50.30
70366;DHT22;57787;48.216;12.396;2024-02-21T11:19:44;13.50;49.20
70366;DHT22;57787;48.216;12.396;2024-02-21T11:22:17;13.70;49.40
70366;DHT22;57787;48.216;12.396;2024-02-21T11:24:44;13.80;50.00
70366;DHT22;57787;48.216;12.396;2024-02-21T11:27:21;13.80;49.30
70366;DHT22;57787;48.216;12.396;2024-02-21T11:29:54;13.80;49.10
70366;DHT22;57787;48.216;12.396;2024-02-21T11:32:22;13.80;48.50
70366;DHT22;57787;48.216;12.396;2024-02-21T11:34:58;13.80;48.90
70366;DHT22;57787;48.216;12.396;2024-02-21T11:37:33;13.80;49.90
70366;DHT22;57787;48.216;12.396;2024-02-21T11:40:04;14.00;48.30
70366;DHT22;57787;48.216;12.396;2024-02-21T11:42:33;13.90;49.20
70366;DHT22;57787;48.216;12.396;2024-02-21T11:45:03;13.80;49.40
70366;DHT22;57787;48.216;12.396;2024-02-21T11:47:31;13.80;49.20
70366;DHT22;57787;48.216;12.396;2024-02-21T11:49:59;13.80;48.00
70366;DHT22;57787;48.216;12.396;2024-02-21T11:52:27;13.90;47.50
70366;DHT22;57787;48.216;12.396;2024-02-21T11:54:55;13.90;46.90
70366;DHT22;57787;48.216;12.396;2024-02-21T11:57:25;14.10;47.70
70366;DHT22;57787;48.216;12.396;2024-02-21T11:59:51;14.20;46.20
70366;DHT22;57787;48.216;12.396;2024-02-21T12:02:27;14.30;46.10
70366;DHT22;57787;48.216;12.396;2024-02-21T12:04:55;14.40;46.50
70366;DHT22;57787;48.216;12.396;2024-02-21T12:07:23;14.60;47.30
70366;DHT22;57787;48.216;12.396;2024-02-21T12:09:51;14.60;45.60
70366;DHT22;57787;48.216;12.396;2024-02-21T12:12:21;14.60;47.00
70366;DHT22;57787;48.216;12.396;2024-02-21T12:14:57;14.80;45.60
70366;DHT22;57787;48.216;12.396;2024-02-21T12:17:25;14.60;44.90
70366;DHT22;57787;48.216;12.396;2024-02-21T12:19:54;14.50;46.00
70366;DHT22;57787;48.216;12.396;2024-02-21T12:22:21;14.50;45.80
70366;DHT22;57787;48.216;12.396;2024-02-21T12:24:49;14.60;44.40
70366;DHT22;57787;48.216;12.396;2024-02-21T12:27:16;14.60;46.60
70366;DHT22;57787;48.216;12.396;2024-02-21T12:29:44;14.60;45.80
70366;DHT22;57787;48.216;12.396;2024-02-21T12:32:10;14.60;45.80
70366;DHT22;57787;48.216;12.396;2024-02-21T12:34:38;14.60;46.40
70366;DHT22;57787;48.216;12.396;2024-02-21T12:37:19;14.60;45.10
70366;DHT22;57787;48.216;12.396;2024-02-21T12:39:47;14.60;45.80
70366;DHT22;57787;48.216;12.396;2024-02-21T12:42:14;14.50;43.60
70366;DHT22;57787;48.216;12.396;2024-02-21T12:44:42;14.60;45.00
70366;DHT22;57787;48.216;12.396;2024-02-21T12:47:10;14.70;43.80
70366;DHT22;57787;48.216;12.396;2024-02-21T12:49:38;14.90;44.70
70366;DHT22;57787;48.216;12.396;2024-02-21T12:52:11;15.00;43.70
70366;DHT22;57787;48.216;12.396;2024-02-21T12:54:41;15.00;41.20
70366;DHT22;57787;48.216;12.396;2024-02-21T12:57:09;15.00;42.40
70366;DHT22;57787;48.216;12.396;2024-02-21T12:59:36;15.00;43.70
70366;DHT22;57787;48.216;12.396;2024-02-21T13:02:03;15.00;42.80
70366;DHT22;57787;48.216;12.396;2024-02-21T13:04:30;15.00;43.10
70366;DHT22;57787;48.216;12.396;2024-02-21T13:06:56;15.00;42.70
70366;DHT22;57787;48.216;12.396;2024-02-21T13:09:23;15.00;43.40
70366;DHT22;57787;48.216;12.396;2024-02-21T13:11:52;15.20;43.40
70366;DHT22;57787;48.216;12.396;2024-02-21T13:14:19;15.20;42.60
70366;DHT22;57787;48.216;12.396;2024-02-21T13:16:46;15.10;40.70
70366;DHT22;57787;48.216;12.396;2024-02-21T13:19:13;15.10;41.40
70366;DHT22;57787;48.216;12.396;2024-02-21T13:21:45;15.10;41.60
70366;DHT22;57787;48.216;12.396;2024-02-21T13:24:12;15.20;41.70
70366;DHT22;57787;48.216;12.396;2024-02-21T13:26:39;15.30;42.00
70366;DHT22;57787;48.216;12.396;2024-02-21T13:29:05;15.30;40.50
70366;DHT22;57787;48.216;12.396;2024-02-21T13:31:33;15.30;40.00
70366;DHT22;57787;48.216;12.396;2024-02-21T13:34:02;15.30;41.50
70366;DHT22;57787;48.216;12.396;2024-02-21T13:36:30;15.30;39.90
70366;DHT22;57787;48.216;12.396;2024-02-21T13:38:59;15.20;38.50
70366;DHT22;57787;48.216;12.396;2024-02-21T13:41:28;15.20;38.60
70366;DHT22;57787;48.216;12.396;2024-02-21T13:43:56;15.10;40.10
70366;DHT22;57787;48.216;12.396;2024-02-21T13:46:23;15.10;40.20
70366;DHT22;57787;48.216;12.396;2024-02-21T13:48:52;15.20;40.00
70366;DHT22;57787;48.216;12.396;2024-02-21T13:51:19;15.30;40.40
70366;DHT22;57787;48.216;12.396;2024-02-21T13:53:46;15.20;40.20
70366;DHT22;57787;48.216;12.396;2024-02-21T13:56:13;15.10;38.90
70366;DHT22;57787;48.216;12.396;2024-02-21T13:58:40;15.00;39.50
70366;DHT22;57787;48.216;12.396;2024-02-21T14:01:07;14.90;40.00
70366;DHT22;57787;48.216;12.396;2024-02-21T14:03:34;14.80;39.40
70366;DHT22;57787;48.216;12.396;2024-02-21T14:06:01;14.70;39.90
70366;DHT22;57787;48.216;12.396;2024-02-21T14:08:32;14.60;38.50
70366;DHT22;57787;48.216;12.396;2024-02-21T14:11:00;14.60;38.30
70366;DHT22;57787;48.216;12.396;2024-02-21T14:13:30;14.50;38.40
70366;DHT22;57787;48.216;12.396;2024-02-21T14:15:59;14.40;37.70
70366;DHT22;57787;48.216;12.396;2024-02-21T14:18:28;14.40;38.30
70366;DHT22;57787;48.216;12.396;2024-02-21T14:20:55;14.40;39.00
70366;DHT22;57787;48.216;12.396;2024-02-21T14:23:22;14.40;38.50
70366;DHT22;57787;48.216;12.396;2024-02-21T14:25:49;14.40;37.80
70366;DHT22;57787;48.216;12.396;2024-02-21T14:28:18;14.40;39.20
70366;DHT22;57787;48.216;12.396;2024-02-21T14:30:48;14.40;38.30
70366;DHT22;57787;48.216;12.396;2024-02-21T14:33:20;14.50;39.20
70366;DHT22;57787;48.216;12.396;2024-02-21T14:35:50;14.50;39.00
70366;DHT22;57787;48.216;12.396;2024-02-21T14:38:21;14.50;40.00
70366;DHT22;57787;48.216;12.396;2024-02-21T14:40:48;14.40;38.30
70366;DHT22;57787;48.216;12.396;2024-02-21T14:43:14;14.30;37.10
70366;DHT22;57787;48.216;12.396;2024-02-21T14:45:41;14.30;38.50
70366;DHT22;57787;48.216;12.396;2024-02-21T14:48:10;14.30;38.40
70366;DHT22;57787;48.216;12.396;2024-02-21T14:50:37;14.20;39.30
70366;DHT22;57787;48.216;12.396;2024-02-21T14:53:04;14.10;40.80
70366;DHT22;57787;48.216;12.396;2024-02-21T14:55:31;14.00;41.30
70366;DHT22;57787;48.216;12.396;2024-02-21T14:57:59;13.90;40.20
70366;DHT22;57787;48.216;12.396;2024-02-21T15:00:27;13.90;40.40
70366;DHT22;57787;48.216;12.396;2024-02-21T15:02:59;13.80;40.50
70366;DHT22;57787;48.216;12.396;2024-02-21T15:05:26;13.70;40.00
70366;DHT22;57787;48.216;12.396;2024-02-21T15:07:55;13.60;40.10
70366;DHT22;57787;48.216;12.396;2024-02-21T15:10:22;13.50;39.90
70366;DHT22;57787;48.216;12.396;2024-02-21T15:12:49;13.40;39.90
70366;DHT22;57787;48.216;12.396;2024-02-21T15:15:19;13.40;40.20
70366;DHT22;57787;48.216;12.396;2024-02-21T15:17:47;13.30;40.80
70366;DHT22;57787;48.216;12.396;2024-02-21T15:20:14;13.20;41.00
70366;DHT22;57787;48.216;12.396;2024-02-21T15:22:40;13.10;43.50
70366;DHT22;57787;48.216;12.396;2024-02-21T15:25:11;13.00;43.40
70366;DHT22;57787;48.216;12.396;2024-02-21T15:27:44;12.90;44.50
70366;DHT22;57787;48.216;12.396;2024-02-21T15:30:11;12.90;44.60
70366;DHT22;57787;48.216;12.396;2024-02-21T15:32:41;12.80;42.40